sensor_id;sensor_type;location;lat;lon;timestamp;pressure;altitude;pressure_sealevel;temperature;humidity
32330;BME280;18807;52.434;13.238;2022-12-16T00:07:18;100777.22;;;-6.58;100.00
32330;BME280;18807;52.434;13.238;2022-12-16T00:14:54;100792.69;;;-6.60;100.00
32330;BME280;18807;52.434;13.238;2022-12-16T00:22:28;100785.31;;;-6.65;100.00
32330;BME280;18807;52.434;13.238;2022-12-16T00:30:04;100792.47;;;-6.73;100.00
32330;BME280;18807;52.434;13.238;2022-12-16T00:37:38;100804.31;;;-6.86;100.00
32330;BME280;18807;52.434;13.238;2022-12-16T00:45:14;100820.28;;;-6.92;100.00
32330;BME280;18807;52.434;13.238;2022-12-16T00:52:48;100816.13;;;-7.00;100.00
32330;BME280;18807;52.434;13.238;2022-12-16T01:00:23;100812.00;;;-7.08;100.00
32330;BME280;18807;52.434;13.238;2022-12-16T01:07:57;100809.13;;;-7.21;100.00
32330;BME280;18807;52.434;13.238;2022-12-16T01:15:32;100806.41;;;-7.22;100.00
32330;BME280;18807;52.434;13.238;2022-12-16T01:23:06;100814.97;;;-7.13;100.00
32330;BME280;18807;52.434;13.238;2022-12-16T01:30:42;100809.28;;;-7.09;100.00
32330;BME280;18807;52.434;13.238;2022-12-16T01:38:16;100809.16;;;-7.11;100.00
32330;BME280;18807;52.434;13.238;2022-12-16T01:45:53;100809.66;;;-7.15;100.00
32330;BME280;18807;52.434;13.238;2022-12-16T01:53:29;100812.13;;;-7.16;100.00
32330;BME280;18807;52.434;13.238;2022-12-16T02:01:06;100809.28;;;-7.19;100.00
32330;BME280;18807;52.434;13.238;2022-12-16T02:08:40;100807.34;;;-7.22;100.00
32330;BME280;18807;52.434;13.238;2022-12-16T02:16:20;100810.34;;;-7.27;100.00
32330;BME280;18807;52.434;13.238;2022-12-16T02:32:07;100807.88;;;-7.36;100.00
32330;BME280;18807;52.434;13.238;2022-12-16T02:39:48;100810.56;;;-7.44;100.00
32330;BME280;18807;52.434;13.238;2022-12-16T02:47:27;100807.97;;;-7.44;100.00
32330;BME280;18807;52.434;13.238;2022-12-16T02:55:03;100800.84;;;-7.57;100.00
32330;BME280;18807;52.434;13.238;2022-12-16T03:02:47;100798.66;;;-7.52;100.00
32330;BME280;18807;52.434;13.238;2022-12-16T03:10:29;100791.00;;;-7.51;100.00
32330;BME280;18807;52.434;13.238;2022-12-16T03:18:08;100800.06;;;-7.56;100.00
32330;BME280;18807;52.434;13.238;2022-12-16T03:25:44;100783.34;;;-7.69;100.00
32330;BME280;18807;52.434;13.238;2022-12-16T03:33:25;100776.22;;;-7.82;100.00
32330;BME280;18807;52.434;13.238;2022-12-16T03:41:04;100781.75;;;-7.87;100.00
32330;BME280;18807;52.434;13.238;2022-12-16T03:48:46;100768.53;;;-7.90;100.00
32330;BME280;18807;52.434;13.238;2022-12-16T03:56:21;100782.41;;;-7.90;100.00
32330;BME280;18807;52.434;13.238;2022-12-16T04:03:56;100773.63;;;-7.82;100.00
32330;BME280;18807;52.434;13.238;2022-12-16T04:11:30;100790.72;;;-7.84;100.00
32330;BME280;18807;52.434;13.238;2022-12-16T04:19:25;100788.63;;;-7.88;100.00
32330;BME280;18807;52.434;13.238;2022-12-16T04:27:17;100804.19;;;-7.88;100.00
32330;BME280;18807;52.434;13.238;2022-12-16T04:34:58;100804.97;;;-7.79;100.00
32330;BME280;18807;52.434;13.238;2022-12-16T04:42:46;100805.13;;;-7.77;100.00
32330;BME280;18807;52.434;13.238;2022-12-16T04:50:39;100815.22;;;-7.80;100.00
32330;BME280;18807;52.434;13.238;2022-12-16T04:58:30;100820.41;;;-7.80;100.00
32330;BME280;18807;52.434;13.238;2022-12-16T05:06:23;100817.03;;;-7.79;100.00
32330;BME280;18807;52.434;13.238;2022-12-16T05:14:15;100818.41;;;-7.93;100.00
32330;BME280;18807;52.434;13.238;2022-12-16T05:22:07;100820.47;;;-7.99;100.00
32330;BME280;18807;52.434;13.238;2022-12-16T05:29:58;100833.00;;;-8.03;100.00
32330;BME280;18807;52.434;13.238;2022-12-16T05:38:06;100833.03;;;-7.93;100.00
32330;BME280;18807;52.434;13.238;2022-12-16T05:45:57;100842.13;;;-7.88;100.00
32330;BME280;18807;52.434;13.238;2022-12-16T05:53:50;100853.72;;;-8.03;100.00
32330;BME280;18807;52.434;13.238;2022-12-16T06:01:41;100858.00;;;-8.04;100.00
32330;BME280;18807;52.434;13.238;2022-12-16T06:09:35;100871.59;;;-8.06;100.00
32330;BME280;18807;52.434;13.238;2022-12-16T06:17:28;100892.84;;;-8.00;100.00
32330;BME280;18807;52.434;13.238;2022-12-16T06:25:21;100903.88;;;-8.03;100.00
32330;BME280;18807;52.434;13.238;2022-12-16T06:33:09;100915.13;;;-8.02;100.00
32330;BME280;18807;52.434;13.238;2022-12-16T06:41:02;100927.88;;;-7.95;100.00
32330;BME280;18807;52.434;13.238;2022-12-16T06:48:54;100929.69;;;-7.94;100.00
32330;BME280;18807;52.434;13.238;2022-12-16T06:56:47;100942.75;;;-7.93;100.00
32330;BME280;18807;52.434;13.238;2022-12-16T07:04:38;100949.13;;;-7.89;100.00
32330;BME280;18807;52.434;13.238;2022-12-16T07:12:31;100950.94;;;-7.88;100.00
32330;BME280;18807;52.434;13.238;2022-12-16T07:20:22;100975.78;;;-7.90;100.00
32330;BME280;18807;52.434;13.238;2022-12-16T07:28:15;100997.63;;;-8.07;100.00
32330;BME280;18807;52.434;13.238;2022-12-16T07:36:07;101011.81;;;-8.12;100.00
32330;BME280;18807;52.434;13.238;2022-12-16T07:43:59;101018.88;;;-8.01;100.00
32330;BME280;18807;52.434;13.238;2022-12-16T07:51:51;101042.47;;;-7.98;100.00
32330;BME280;18807;52.434;13.238;2022-12-16T07:59:45;101048.34;;;-7.90;100.00
32330;BME280;18807;52.434;13.238;2022-12-16T08:07:38;101054.16;;;-7.74;100.00
32330;BME280;18807;52.434;13.238;2022-12-16T08:15:31;101053.19;;;-7.38;100.00
32330;BME280;18807;52.434;13.238;2022-12-16T08:23:22;101069.81;;;-6.87;100.00
32330;BME280;18807;52.434;13.238;2022-12-16T08:31:15;101075.44;;;-6.63;100.00
32330;BME280;18807;52.434;13.238;2022-12-16T08:39:06;101077.09;;;-6.73;100.00
32330;BME280;18807;52.434;13.238;2022-12-16T08:46:59;101067.25;;;-6.67;100.00
32330;BME280;18807;52.434;13.238;2022-12-16T08:54:50;101075.75;;;-6.19;100.00
32330;BME280;18807;52.434;13.238;2022-12-16T09:02:44;101076.97;;;-5.74;100.00
32330;BME280;18807;52.434;13.238;2022-12-16T09:10:36;101071.06;;;-5.20;100.00
32330;BME280;18807;52.434;13.238;2022-12-16T09:18:29;101082.41;;;-5.20;100.00
32330;BME280;18807;52.434;13.238;2022-12-16T09:26:20;101078.00;;;-5.21;100.00
32330;BME280;18807;52.434;13.238;2022-12-16T09:34:13;101089.91;;;-5.13;100.00
32330;BME280;18807;52.434;13.238;2022-12-16T09:42:10;101094.69;;;-4.97;100.00
32330;BME280;18807;52.434;13.238;2022-12-16T09:50:17;101091.34;;;-4.85;100.00
32330;BME280;18807;52.434;13.238;2022-12-16T09:58:10;101085.81;;;-4.68;100.00
32330;BME280;18807;52.434;13.238;2022-12-16T10:06:10;101095.06;;;-4.50;100.00
32330;BME280;18807;52.434;13.238;2022-12-16T10:14:09;101090.38;;;-4.32;100.00
32330;BME280;18807;52.434;13.238;2022-12-16T10:22:11;101083.19;;;-4.13;100.00
32330;BME280;18807;52.434;13.238;2022-12-16T10:30:11;101071.09;;;-4.01;100.00
32330;BME280;18807;52.434;13.238;2022-12-16T10:38:06;101079.41;;;-3.83;100.00
32330;BME280;18807;52.434;13.238;2022-12-16T10:46:08;101091.34;;;-3.75;100.00
32330;BME280;18807;52.434;13.238;2022-12-16T10:54:29;101096.91;;;-3.59;100.00
32330;BME280;18807;52.434;13.238;2022-12-16T11:02:24;101102.03;;;-3.49;100.00
32330;BME280;18807;52.434;13.238;2022-12-16T11:10:29;101096.94;;;-3.36;100.00
32330;BME280;18807;52.434;13.238;2022-12-16T11:18:22;101112.94;;;-3.32;100.00
32330;BME280;18807;52.434;13.238;2022-12-16T11:26:17;101097.94;;;-3.23;100.00
32330;BME280;18807;52.434;13.238;2022-12-16T11:34:09;101100.88;;;-3.07;100.00
32330;BME280;18807;52.434;13.238;2022-12-16T11:42:04;101103.28;;;-2.98;100.00
32330;BME280;18807;52.434;13.238;2022-12-16T11:49:57;101122.31;;;-2.88;100.00
32330;BME280;18807;52.434;13.238;2022-12-16T11:57:55;101116.56;;;-2.84;100.00
32330;BME280;18807;52.434;13.238;2022-12-16T12:06:01;101115.38;;;-2.76;100.00
32330;BME280;18807;52.434;13.238;2022-12-16T12:14:04;101122.78;;;-2.70;100.00
32330;BME280;18807;52.434;13.238;2022-12-16T12:22:01;101114.47;;;-2.65;100.00
32330;BME280;18807;52.434;13.238;2022-12-16T12:30:01;101126.81;;;-2.51;100.00
32330;BME280;18807;52.434;13.238;2022-12-16T12:37:57;101135.69;;;-2.49;100.00
32330;BME280;18807;52.434;13.238;2022-12-16T12:46:00;101141.34;;;-2.43;100.00
32330;BME280;18807;52.434;13.238;2022-12-16T12:54:00;101141.91;;;-2.35;100.00
32330;BME280;18807;52.434;13.238;2022-12-16T13:02:04;101152.56;;;-2.32;100.00
32330;BME280;18807;52.434;13.238;2022-12-16T13:10:12;101164.84;;;-2.31;100.00
32330;BME280;18807;52.434;13.238;2022-12-16T13:18:22;101171.91;;;-2.30;100.00
32330;BME280;18807;52.434;13.238;2022-12-16T13:26:15;101176.56;;;-2.26;100.00
32330;BME280;18807;52.434;13.238;2022-12-16T13:34:21;101188.25;;;-2.21;100.00
32330;BME280;18807;52.434;13.238;2022-12-16T13:42:31;101202.13;;;-2.22;100.00
32330;BME280;18807;52.434;13.238;2022-12-16T13:50:37;101206.66;;;-2.20;100.00
32330;BME280;18807;52.434;13.238;2022-12-16T13:58:35;101223.16;;;-2.21;100.00
32330;BME280;18807;52.434;13.238;2022-12-16T14:06:29;101232.81;;;-2.20;100.00
32330;BME280;18807;52.434;13.238;2022-12-16T14:14:25;101242.03;;;-2.25;100.00
32330;BME280;18807;52.434;13.238;2022-12-16T14:22:34;101250.59;;;-2.27;100.00
32330;BME280;18807;52.434;13.238;2022-12-16T14:30:30;101257.28;;;-2.31;100.00
32330;BME280;18807;52.434;13.238;2022-12-16T14:38:25;101264.00;;;-2.23;100.00
32330;BME280;18807;52.434;13.238;2022-12-16T14:46:24;101273.53;;;-2.23;100.00
32330;BME280;18807;52.434;13.238;2022-12-16T14:54:22;101284.59;;;-2.27;100.00
32330;BME280;18807;52.434;13.238;2022-12-16T15:02:23;101290.72;;;-2.27;100.00
32330;BME280;18807;52.434;13.238;2022-12-16T15:10:19;101294.59;;;-2.33;100.00
32330;BME280;18807;52.434;13.238;2022-12-16T15:18:18;101293.34;;;-2.38;100.00
32330;BME280;18807;52.434;13.238;2022-12-16T15:26:17;101297.44;;;-2.42;100.00
32330;BME280;18807;52.434;13.238;2022-12-16T15:34:20;101314.94;;;-2.41;100.00
32330;BME280;18807;52.434;13.238;2022-12-16T15:42:21;101334.72;;;-2.44;100.00
32330;BME280;18807;52.434;13.238;2022-12-16T15:50:17;101344.50;;;-2.42;100.00
32330;BME280;18807;52.434;13.238;2022-12-16T15:58:15;101347.09;;;-2.42;100.00
32330;BME280;18807;52.434;13.238;2022-12-16T16:06:15;101366.22;;;-2.43;100.00
32330;BME280;18807;52.434;13.238;2022-12-16T16:14:08;101363.38;;;-2.46;100.00
32330;BME280;18807;52.434;13.238;2022-12-16T16:21:59;101382.72;;;-2.44;100.00
32330;BME280;18807;52.434;13.238;2022-12-16T16:29:52;101392.00;;;-2.47;100.00
32330;BME280;18807;52.434;13.238;2022-12-16T16:37:43;101391.78;;;-2.50;100.00
32330;BME280;18807;52.434;13.238;2022-12-16T16:45:36;101403.03;;;-2.51;100.00
32330;BME280;18807;52.434;13.238;2022-12-16T16:53:27;101406.44;;;-2.52;100.00
32330;BME280;18807;52.434;13.238;2022-12-16T17:01:20;101410.41;;;-2.57;100.00
32330;BME280;18807;52.434;13.238;2022-12-16T17:09:11;101404.03;;;-2.61;100.00
32330;BME280;18807;52.434;13.238;2022-12-16T17:17:04;101401.53;;;-2.59;100.00
32330;BME280;18807;52.434;13.238;2022-12-16T17:24:56;101417.56;;;-2.55;100.00
32330;BME280;18807;52.434;13.238;2022-12-16T17:32:49;101426.91;;;-2.58;100.00
32330;BME280;18807;52.434;13.238;2022-12-16T17:40:40;101423.38;;;-2.59;100.00
32330;BME280;18807;52.434;13.238;2022-12-16T17:48:33;101433.13;;;-2.56;100.00
32330;BME280;18807;52.434;13.238;2022-12-16T17:56:24;101450.00;;;-2.53;100.00
32330;BME280;18807;52.434;13.238;2022-12-16T18:04:17;101462.38;;;-2.50;100.00
32330;BME280;18807;52.434;13.238;2022-12-16T18:12:09;101470.91;;;-2.53;100.00
32330;BME280;18807;52.434;13.238;2022-12-16T18:20:02;101478.63;;;-2.54;100.00
32330;BME280;18807;52.434;13.238;2022-12-16T18:27:53;101471.78;;;-2.52;100.00
32330;BME280;18807;52.434;13.238;2022-12-16T18:35:47;101475.22;;;-2.53;100.00
32330;BME280;18807;52.434;13.238;2022-12-16T18:43:37;101483.97;;;-2.53;100.00
32330;BME280;18807;52.434;13.238;2022-12-16T18:51:38;101500.13;;;-2.47;100.00
32330;BME280;18807;52.434;13.238;2022-12-16T18:59:30;101504.22;;;-2.50;100.00
32330;BME280;18807;52.434;13.238;2022-12-16T19:07:23;101504.22;;;-2.50;100.00
32330;BME280;18807;52.434;13.238;2022-12-16T19:15:15;101512.97;;;-2.50;100.00
32330;BME280;18807;52.434;13.238;2022-12-16T19:23:14;101517.84;;;-2.54;100.00
32330;BME280;18807;52.434;13.238;2022-12-16T19:31:02;101523.97;;;-2.54;100.00
32330;BME280;18807;52.434;13.238;2022-12-16T19:38:55;101534.41;;;-2.54;100.00
32330;BME280;18807;52.434;13.238;2022-12-16T19:46:46;101544.88;;;-2.54;100.00
32330;BME280;18807;52.434;13.238;2022-12-16T19:54:40;101554.44;;;-2.54;100.00
32330;BME280;18807;52.434;13.238;2022-12-16T20:02:31;101569.34;;;-2.53;100.00
32330;BME280;18807;52.434;13.238;2022-12-16T20:10:24;101570.50;;;-2.50;100.00
32330;BME280;18807;52.434;13.238;2022-12-16T20:18:15;101583.00;;;-2.46;100.00
32330;BME280;18807;52.434;13.238;2022-12-16T20:26:08;101578.94;;;-2.42;100.00
32330;BME280;18807;52.434;13.238;2022-12-16T20:34:01;101593.53;;;-2.34;100.00
32330;BME280;18807;52.434;13.238;2022-12-16T20:41:56;101606.06;;;-2.30;100.00
32330;BME280;18807;52.434;13.238;2022-12-16T20:49:47;101609.56;;;-2.30;100.00
32330;BME280;18807;52.434;13.238;2022-12-16T20:57:40;101612.19;;;-2.30;100.00
32330;BME280;18807;52.434;13.238;2022-12-16T21:05:37;101618.22;;;-2.31;100.00
32330;BME280;18807;52.434;13.238;2022-12-16T21:13:41;101629.72;;;-2.29;100.00
32330;BME280;18807;52.434;13.238;2022-12-16T21:21:32;101644.50;;;-2.29;100.00
32330;BME280;18807;52.434;13.238;2022-12-16T21:29:26;101638.59;;;-2.27;100.00
32330;BME280;18807;52.434;13.238;2022-12-16T21:37:17;101651.91;;;-2.24;100.00
32330;BME280;18807;52.434;13.238;2022-12-16T21:45:10;101658.88;;;-2.24;100.00
32330;BME280;18807;52.434;13.238;2022-12-16T21:53:03;101671.28;;;-2.22;100.00
32330;BME280;18807;52.434;13.238;2022-12-16T22:00:56;101677.06;;;-2.26;100.00
32330;BME280;18807;52.434;13.238;2022-12-16T22:08:48;101688.41;;;-2.25;100.00
32330;BME280;18807;52.434;13.238;2022-12-16T22:16:42;101679.56;;;-2.27;100.00
32330;BME280;18807;52.434;13.238;2022-12-16T22:24:34;101685.44;;;-2.30;100.00
32330;BME280;18807;52.434;13.238;2022-12-16T22:32:29;101689.09;;;-2.28;100.00
32330;BME280;18807;52.434;13.238;2022-12-16T22:40:20;101695.38;;;-2.26;100.00
32330;BME280;18807;52.434;13.238;2022-12-16T22:48:13;101705.72;;;-2.27;100.00
32330;BME280;18807;52.434;13.238;2022-12-16T22:56:05;101710.81;;;-2.29;100.00
32330;BME280;18807;52.434;13.238;2022-12-16T23:03:58;101718.78;;;-2.27;100.00
32330;BME280;18807;52.434;13.238;2022-12-16T23:11:49;101718.34;;;-2.22;100.00
32330;BME280;18807;52.434;13.238;2022-12-16T23:19:42;101710.50;;;-2.22;100.00
32330;BME280;18807;52.434;13.238;2022-12-16T23:27:33;101723.97;;;-2.17;100.00
32330;BME280;18807;52.434;13.238;2022-12-16T23:35:26;101719.63;;;-2.17;100.00
32330;BME280;18807;52.434;13.238;2022-12-16T23:43:17;101719.09;;;-2.13;100.00
32330;BME280;18807;52.434;13.238;2022-12-16T23:51:10;101722.34;;;-2.15;100.00
32330;BME280;18807;52.434;13.238;2022-12-16T23:59:02;101732.56;;;-2.18;100.00
